Time;durP1;ratioP1;P1;durP2;ratioP2;P2;SDS_P1;SDS_P2;PMS_P1;PMS_P2;Temp;Humidity;BMP_temperature;BMP_pressure;BME280_temperature;BME280_humidity;BME280_pressure;Samples;Min_cycle;Max_cycle;Signal;HPM_P1;HPM_P2
2022/07/20 00:38:33;;;;;;;8.05;4.15;;;;;;;24.01;37.87;101041.50;4986908;28;20049;-91
2022/07/20 01:09:52;;;;;;;10.43;4.00;;;;;;;23.52;40.13;101086.81;5821969;23;20046;-91
2022/07/20 01:12:17;;;;;;;13.52;3.65;;;;;;;23.47;40.53;101078.03;4998641;28;20058;-91
2022/07/20 01:14:43;;;;;;;11.07;4.20;;;;;;;23.39;40.44;101094.19;4986623;28;20394;-92
2022/07/20 01:17:09;;;;;;;6.40;3.50;;;;;;;23.33;40.25;101079.19;4977229;28;20038;-91
2022/07/20 01:19:34;;;;;;;10.63;4.20;;;;;;;23.28;40.32;101068.44;4982627;28;20038;-91
2022/07/20 01:22:00;;;;;;;8.77;4.40;;;;;;;23.23;40.35;101074.94;4995113;28;20304;-92
2022/07/20 01:24:27;;;;;;;5.50;3.40;;;;;;;23.12;41.07;101080.00;5012894;28;20033;-92
2022/07/20 01:26:52;;;;;;;8.23;3.92;;;;;;;23.05;41.55;101066.09;4993800;28;20058;-92
2022/07/20 01:29:17;;;;;;;8.60;4.00;;;;;;;23.03;42.53;101082.00;4992496;28;20086;-92
2022/07/20 01:31:43;;;;;;;9.73;3.70;;;;;;;22.97;41.88;101078.69;4992537;28;20038;-92
2022/07/20 01:34:08;;;;;;;7.40;3.87;;;;;;;22.88;42.20;101069.81;4992192;28;20077;-91
2022/07/20 01:36:34;;;;;;;9.70;4.03;;;;;;;22.87;42.25;101070.94;4998826;28;20057;-92
2022/07/20 01:38:59;;;;;;;11.27;4.10;;;;;;;22.82;41.78;101071.91;4995236;28;20034;-91
2022/07/20 01:41:24;;;;;;;12.03;3.80;;;;;;;22.78;42.28;101067.47;4993854;28;20302;-92
2022/07/20 01:43:50;;;;;;;8.57;3.83;;;;;;;22.74;42.32;101056.44;4989330;28;20482;-92
2022/07/20 01:46:16;;;;;;;7.53;3.90;;;;;;;22.71;42.18;101053.56;4991694;28;20540;-91
2022/07/20 01:48:42;;;;;;;6.55;4.20;;;;;;;22.65;42.40;101050.22;4992673;28;20022;-91
2022/07/20 01:51:07;;;;;;;9.10;4.40;;;;;;;22.60;43.06;101058.66;4991791;28;20042;-90
2022/07/20 01:53:34;;;;;;;8.50;4.07;;;;;;;22.57;42.84;101064.78;4991661;28;20030;-90
2022/07/20 01:56:00;;;;;;;6.28;3.88;;;;;;;22.56;43.08;101063.19;4991149;28;20033;-90
2022/07/20 01:58:25;;;;;;;9.75;3.97;;;;;;;22.53;43.05;101054.50;4990271;28;20030;-91
2022/07/20 02:00:51;;;;;;;11.33;3.47;;;;;;;22.59;43.31;101067.97;4986982;28;20520;-91
2022/07/20 02:03:17;;;;;;;6.87;3.77;;;;;;;22.52;43.10;101069.28;4996642;28;20125;-91
2022/07/20 02:05:42;;;;;;;6.18;3.95;;;;;;;22.45;43.31;101070.97;4993731;28;20144;-90
2022/07/20 02:08:08;;;;;;;8.13;4.05;;;;;;;22.38;43.92;101069.53;4992279;28;20173;-90
2022/07/20 02:10:34;;;;;;;8.70;4.15;;;;;;;22.33;44.17;101072.47;4990891;28;20081;-90
2022/07/20 02:13:00;;;;;;;6.50;4.10;;;;;;;22.29;44.90;101074.25;4990464;28;20045;-90
2022/07/20 02:18:12;;;;;;;5.78;4.07;;;;;;;22.26;43.83;101118.59;4990758;28;20068;-90
2022/07/20 02:20:39;;;;;;;8.83;4.20;;;;;;;22.18;43.96;101103.88;4990702;28;20062;-90
2022/07/20 02:23:06;;;;;;;6.20;4.30;;;;;;;22.21;43.37;101108.66;4990295;28;20343;-90
2022/07/20 02:25:31;;;;;;;9.18;5.00;;;;;;;22.27;42.67;101112.00;4989809;28;20470;-91
2022/07/20 02:27:57;;;;;;;10.02;5.80;;;;;;;22.32;43.76;101105.53;4989409;28;20041;-90
2022/07/20 02:30:22;;;;;;;14.77;5.70;;;;;;;22.30;43.90;101105.88;4990647;28;20027;-90
2022/07/20 02:32:48;;;;;;;15.45;6.85;;;;;;;22.33;45.59;101116.16;4989850;28;20176;-90
2022/07/20 02:35:13;;;;;;;14.93;7.73;;;;;;;22.32;46.47;101116.47;4990176;28;20031;-88
2022/07/20 02:37:39;;;;;;;13.97;8.73;;;;;;;22.29;48.22;101112.47;4989907;28;20054;-89
2022/07/20 02:40:05;;;;;;;21.03;10.37;;;;;;;22.30;48.91;101111.34;4973009;28;20034;-88
2022/07/20 02:42:30;;;;;;;21.10;11.65;;;;;;;22.26;50.43;101112.34;4989463;28;20618;-88
2022/07/20 02:44:55;;;;;;;22.27;11.47;;;;;;;22.19;51.29;101113.66;4988674;28;20271;-87
2022/07/20 02:47:21;;;;;;;21.65;12.23;;;;;;;22.14;52.37;101124.75;4989153;28;20504;-87
2022/07/20 02:49:46;;;;;;;27.27;13.57;;;;;;;22.11;53.29;101117.22;4986455;28;20069;-87
2022/07/20 02:52:11;;;;;;;22.63;12.77;;;;;;;22.05;53.46;101124.81;4988665;28;20030;-87
2022/07/20 02:54:36;;;;;;;27.00;13.50;;;;;;;22.01;54.50;101125.78;4988741;28;20026;-87
2022/07/20 02:57:02;;;;;;;23.27;13.10;;;;;;;21.97;54.05;101117.47;4990305;28;20022;-88
2022/07/20 02:59:27;;;;;;;36.40;13.80;;;;;;;21.93;54.82;101121.97;4989725;28;20098;-88
2022/07/20 03:01:52;;;;;;;26.13;13.13;;;;;;;21.89;55.17;101116.38;4984505;28;20792;-87
2022/07/20 03:04:18;;;;;;;29.73;13.85;;;;;;;21.83;55.43;101114.97;4989847;28;20073;-88
2022/07/20 03:06:43;;;;;;;23.30;12.23;;;;;;;21.78;54.62;101120.59;4981402;28;20488;-87
2022/07/20 03:09:08;;;;;;;23.63;12.97;;;;;;;21.75;55.54;101126.69;4994098;28;20026;-87
2022/07/20 03:11:34;;;;;;;21.77;13.37;;;;;;;21.66;56.20;101131.41;4992382;28;20064;-87
2022/07/20 03:13:59;;;;;;;26.40;14.70;;;;;;;21.62;57.82;101132.03;4995035;28;20029;-87
2022/07/20 03:16:24;;;;;;;33.30;14.68;;;;;;;21.59;58.67;101131.88;4991669;28;20449;-87
2022/07/20 03:18:50;;;;;;;27.07;14.87;;;;;;;21.55;58.01;101126.25;4974206;28;20027;-87
2022/07/20 03:21:15;;;;;;;29.77;15.13;;;;;;;21.50;58.23;101123.72;4972289;28;20089;-87
2022/07/20 03:23:40;;;;;;;32.07;15.93;;;;;;;21.44;59.47;101125.00;4972438;28;20158;-87
2022/07/20 03:26:06;;;;;;;36.33;16.90;;;;;;;21.45;60.53;101137.50;4974284;28;20426;-87
2022/07/20 03:28:31;;;;;;;32.50;17.92;;;;;;;21.39;61.87;101146.97;4973969;28;20035;-88
2022/07/20 03:30:56;;;;;;;34.77;18.10;;;;;;;21.41;62.50;101152.91;4973879;28;20076;-87
2022/07/20 03:33:21;;;;;;;34.43;19.37;;;;;;;21.38;61.76;101164.47;4972755;28;20042;-87
2022/07/20 03:35:47;;;;;;;34.27;19.17;;;;;;;21.33;62.32;101163.53;4974058;28;20114;-88
2022/07/20 03:38:12;;;;;;;39.73;19.13;;;;;;;21.31;63.08;101175.84;4973930;28;20493;-87
2022/07/20 03:40:37;;;;;;;34.70;19.67;;;;;;;21.32;62.41;101185.63;4971935;28;20039;-88
2022/07/20 03:43:02;;;;;;;34.97;19.07;;;;;;;21.28;62.57;101187.38;4973943;28;20034;-88
2022/07/20 03:45:28;;;;;;;32.40;19.97;;;;;;;21.31;63.28;101190.28;4980856;28;20524;-88
2022/07/20 03:47:54;;;;;;;33.60;20.03;;;;;;;21.32;63.06;101194.63;4980796;28;20038;-88
2022/07/20 03:50:19;;;;;;;34.67;20.37;;;;;;;21.33;63.30;101195.41;4969701;28;20349;-88
2022/07/20 03:52:44;;;;;;;28.40;19.13;;;;;;;21.37;63.80;101201.00;4973756;28;20034;-89
2022/07/20 03:55:10;;;;;;;32.97;20.13;;;;;;;21.36;64.05;101204.88;4939204;28;20310;-87
2022/07/20 03:57:35;;;;;;;34.93;19.93;;;;;;;21.44;64.30;101210.31;4974196;28;20027;-86
2022/07/20 04:00:00;;;;;;;35.97;20.57;;;;;;;21.44;63.86;101225.88;4973654;28;20106;-87
2022/07/20 04:02:26;;;;;;;37.17;20.10;;;;;;;21.45;64.25;101228.25;4973324;28;20499;-86
2022/07/20 04:04:51;;;;;;;42.27;21.83;;;;;;;21.46;65.18;101229.06;4976393;28;20026;-88
2022/07/20 04:07:16;;;;;;;38.38;21.55;;;;;;;21.51;65.27;101236.28;4988173;28;20161;-87
2022/07/20 04:09:44;;;;;;;33.37;20.97;;;;;;;21.53;64.33;101234.03;4966252;28;20027;-87
2022/07/20 04:12:13;;;;;;;36.95;21.80;;;;;;;21.52;65.72;101237.88;4972141;28;20037;-87
2022/07/20 04:14:39;;;;;;;41.27;20.67;;;;;;;21.53;65.37;101242.22;4968733;28;20038;-86
2022/07/20 04:17:04;;;;;;;37.50;21.60;;;;;;;21.61;64.23;101244.94;4966768;28;20289;-86
2022/07/20 04:19:30;;;;;;;34.90;22.10;;;;;;;21.66;64.57;101240.47;4971862;28;20085;-86
2022/07/20 04:21:56;;;;;;;32.30;20.53;;;;;;;21.76;64.32;101245.56;4973116;28;20045;-86
2022/07/20 04:24:23;;;;;;;35.75;21.63;;;;;;;21.91;63.33;101244.25;4970945;28;20042;-86
2022/07/20 04:26:48;;;;;;;36.33;20.40;;;;;;;21.96;64.53;101257.72;4973114;28;20022;-86
2022/07/20 04:29:13;;;;;;;38.33;20.93;;;;;;;22.08;62.88;101254.34;4971889;28;20531;-87
2022/07/20 04:31:39;;;;;;;31.95;20.30;;;;;;;22.18;63.24;101256.69;4972845;28;20101;-86
2022/07/20 04:34:04;;;;;;;37.90;20.70;;;;;;;22.26;62.86;101255.06;4971375;28;20101;-86
2022/07/20 04:36:29;;;;;;;37.73;20.37;;;;;;;22.43;61.83;101259.69;4972501;28;20043;-86
2022/07/20 04:38:55;;;;;;;30.03;19.00;;;;;;;22.56;60.74;101259.78;4972939;28;20030;-86
2022/07/20 04:41:20;;;;;;;35.63;20.23;;;;;;;22.66;61.62;101273.03;4972043;28;20030;-86
2022/07/20 04:43:45;;;;;;;33.72;19.95;;;;;;;22.74;61.39;101277.66;4968801;28;20027;-85
2022/07/20 04:46:10;;;;;;;37.83;20.13;;;;;;;22.83;60.88;101283.84;4969096;28;20031;-86
2022/07/20 04:48:36;;;;;;;31.13;19.43;;;;;;;22.89;60.19;101283.69;4971954;28;20545;-85
2022/07/20 04:51:01;;;;;;;30.73;19.67;;;;;;;22.96;59.90;101282.03;4971838;28;20035;-87
2022/07/20 04:53:27;;;;;;;31.63;19.70;;;;;;;22.96;60.26;101292.16;4971501;28;20051;-86
2022/07/20 04:55:53;;;;;;;29.13;18.48;;;;;;;22.96;59.56;101289.44;4972339;28;20022;-86
2022/07/20 04:58:18;;;;;;;27.58;18.52;;;;;;;22.89;59.89;101292.69;4971987;28;20078;-86
2022/07/20 05:00:43;;;;;;;31.30;19.27;;;;;;;22.86;60.13;101296.06;4971388;28;20126;-85
2022/07/20 05:03:09;;;;;;;29.87;17.33;;;;;;;22.84;60.27;101298.34;4972558;28;20030;-85
2022/07/20 05:05:34;;;;;;;31.23;18.20;;;;;;;22.83;60.07;101291.28;4955299;28;20015;-86
2022/07/20 05:07:59;;;;;;;30.90;18.57;;;;;;;22.96;59.51;101287.47;4954862;28;20539;-86
2022/07/20 05:10:25;;;;;;;30.33;17.73;;;;;;;23.20;58.04;101287.97;4976632;28;20038;-86
2022/07/20 05:12:50;;;;;;;30.42;18.05;;;;;;;23.29;58.22;101286.00;4989649;28;20018;-85
2022/07/20 05:15:15;;;;;;;29.23;17.20;;;;;;;23.53;56.70;101279.84;4976047;28;20472;-85
2022/07/20 05:17:40;;;;;;;28.10;16.93;;;;;;;23.94;56.07;101274.59;4971795;28;20029;-87
2022/07/20 05:20:07;;;;;;;29.80;16.50;;;;;;;24.16;55.24;101278.09;4982751;28;20048;-87
2022/07/20 05:22:32;;;;;;;31.10;17.10;;;;;;;24.39;55.03;101286.69;4972611;28;20049;-87
2022/07/20 05:24:57;;;;;;;26.23;16.30;;;;;;;24.77;54.39;101295.75;4981854;28;20474;-84
2022/07/20 05:27:23;;;;;;;28.13;16.50;;;;;;;25.42;52.16;101299.59;4990966;28;20027;-87
2022/07/20 05:29:48;;;;;;;27.97;16.80;;;;;;;25.97;50.47;101298.00;4984834;28;20031;-86
2022/07/20 05:32:14;;;;;;;27.90;16.07;;;;;;;26.42;49.19;101319.91;4971908;28;20296;-86
2022/07/20 05:34:40;;;;;;;27.15;16.15;;;;;;;26.77;48.20;101324.66;4970278;28;20042;-86
2022/07/20 05:37:05;;;;;;;25.87;15.43;;;;;;;26.95;47.66;101330.59;4972191;28;20023;-87
2022/07/20 05:39:30;;;;;;;24.57;15.83;;;;;;;26.96;46.47;101340.44;4971246;28;20050;-88
2022/07/20 05:41:56;;;;;;;25.80;16.10;;;;;;;26.80;47.51;101332.22;4970582;28;20035;-86
2022/07/20 05:44:21;;;;;;;29.33;16.83;;;;;;;26.96;47.03;101348.69;4970753;28;20507;-88
2022/07/20 05:46:46;;;;;;;28.53;16.03;;;;;;;27.28;46.81;101348.59;4972062;28;20139;-87
2022/07/20 05:49:11;;;;;;;26.08;15.82;;;;;;;27.31;46.22;101352.56;4969940;28;20034;-87
2022/07/20 05:51:38;;;;;;;25.13;16.47;;;;;;;27.21;46.48;101375.94;4975757;28;20029;-87
2022/07/20 05:54:04;;;;;;;29.98;16.55;;;;;;;27.21;46.74;101367.69;4989885;28;20070;-86
2022/07/20 05:56:29;;;;;;;24.60;16.23;;;;;;;27.23;46.39;101364.59;4991128;28;20054;-87
2022/07/20 05:58:54;;;;;;;27.60;16.07;;;;;;;27.26;46.38;101372.91;4987003;28;20041;-86
2022/07/20 06:01:20;;;;;;;25.80;15.50;;;;;;;27.18;46.20;101371.19;4971146;28;20058;-87
2022/07/20 06:03:45;;;;;;;22.57;14.67;;;;;;;27.16;46.34;101376.25;4971115;28;20035;-86
2022/07/20 06:06:10;;;;;;;24.13;13.80;;;;;;;27.25;46.33;101392.53;4973662;28;20023;-86
2022/07/20 06:08:37;;;;;;;22.63;14.40;;;;;;;27.11;45.62;101395.75;4972876;28;20114;-86
2022/07/20 06:11:03;;;;;;;22.65;12.75;;;;;;;26.65;46.52;101405.28;4959749;28;20140;-85
2022/07/20 06:13:28;;;;;;;20.73;13.10;;;;;;;26.15;47.67;101393.78;4991266;28;20035;-85
2022/07/20 06:15:53;;;;;;;20.23;11.67;;;;;;;25.82;49.04;101408.53;4995337;28;20144;-84
2022/07/20 06:18:20;;;;;;;21.30;12.13;;;;;;;25.61;49.03;101411.44;4993064;28;20026;-85
2022/07/20 06:20:45;;;;;;;18.52;12.70;;;;;;;25.50;49.76;101409.19;4992415;28;20042;-85
2022/07/20 06:23:11;;;;;;;22.27;12.60;;;;;;;25.43;50.08;101425.44;4993021;28;20069;-85
2022/07/20 06:25:36;;;;;;;19.00;12.17;;;;;;;25.46;49.72;101432.19;4971734;28;20930;-85
2022/07/20 06:28:02;;;;;;;22.10;12.97;;;;;;;25.34;50.11;101432.97;4989739;28;20038;-85
2022/07/20 06:30:27;;;;;;;16.38;11.40;;;;;;;25.13;50.77;101435.81;4987681;28;20099;-86
2022/07/20 06:32:53;;;;;;;21.47;12.00;;;;;;;25.03;51.13;101445.31;4990053;28;20023;-86
2022/07/20 06:35:18;;;;;;;21.67;11.57;;;;;;;25.03;51.43;101445.31;4990846;28;20027;-90
2022/07/20 06:37:44;;;;;;;22.63;12.30;;;;;;;25.01;51.38;101456.63;4994222;28;20289;-89
2022/07/20 06:40:09;;;;;;;23.47;12.57;;;;;;;24.97;51.59;101468.63;4993265;28;20027;-89
2022/07/20 06:42:35;;;;;;;20.73;11.93;;;;;;;24.85;51.81;101477.63;4997981;28;20105;-90
2022/07/20 06:45:01;;;;;;;19.57;11.03;;;;;;;24.93;51.38;101483.00;5003333;28;20037;-89
2022/07/20 06:47:27;;;;;;;19.67;12.03;;;;;;;25.15;51.46;101486.44;4979977;28;20309;-89
2022/07/20 06:49:53;;;;;;;23.00;12.30;;;;;;;25.33;50.89;101497.19;4997054;28;20118;-89
2022/07/20 06:52:18;;;;;;;19.48;12.30;;;;;;;25.29;50.93;101497.06;4997220;28;20022;-90
2022/07/20 06:54:56;;;;;;;18.52;11.48;;;;;;;25.31;50.34;101499.47;4978569;28;20026;-89
2022/07/20 06:57:30;;;;;;;23.43;11.87;;;;;;;25.17;50.77;101499.81;4993688;28;20022;-90
2022/07/20 06:59:56;;;;;;;20.45;11.50;;;;;;;25.19;50.63;101495.59;4994672;28;20030;-90
2022/07/20 07:02:21;;;;;;;21.25;12.00;;;;;;;25.40;50.17;101505.63;4994723;28;20073;-90
2022/07/20 07:05:15;;;;;;;18.20;11.67;;;;;;;25.75;50.20;101513.41;4994916;28;20026;-90
2022/07/20 07:08:40;;;;;;;19.30;11.32;;;;;;;25.72;50.68;101496.84;4999537;28;20091;-90
2022/07/20 07:11:06;;;;;;;17.88;11.50;;;;;;;25.97;49.70;101503.06;4988197;28;20073;-89
2022/07/20 07:13:32;;;;;;;19.10;10.95;;;;;;;26.12;49.07;101509.81;4993012;28;20049;-90
2022/07/20 07:15:57;;;;;;;21.33;11.07;;;;;;;26.40;47.84;101509.81;4990919;28;20474;-90
2022/07/20 07:18:22;;;;;;;20.37;11.87;;;;;;;26.48;47.30;101497.06;4994144;28;20092;-89
2022/07/20 07:20:51;;;;;;;18.83;10.57;;;;;;;26.60;47.67;101508.00;5003580;23;20026;-90
2022/07/20 07:23:18;;;;;;;22.13;11.60;;;;;;;26.69;48.01;101515.28;5014619;28;20072;-89
2022/07/20 07:25:43;;;;;;;20.02;10.52;;;;;;;27.03;47.47;101513.81;5015115;28;20025;-90
2022/07/20 07:28:09;;;;;;;21.97;10.77;;;;;;;27.27;46.72;101527.78;5013903;28;20087;-89
2022/07/20 07:30:34;;;;;;;21.07;11.60;;;;;;;27.37;46.43;101527.22;5013164;28;20079;-89
2022/07/20 07:32:59;;;;;;;19.45;10.43;;;;;;;27.38;45.17;101545.31;5014232;28;20034;-89
2022/07/20 07:35:46;;;;;;;19.13;10.40;;;;;;;27.39;45.68;101554.38;5012415;28;20033;-89
2022/07/20 07:38:13;;;;;;;20.58;11.32;;;;;;;27.17;45.83;101542.84;5014505;28;20037;-89
2022/07/20 07:40:52;;;;;;;23.27;10.63;;;;;;;27.00;46.11;101560.50;5013004;28;20072;-89
2022/07/20 07:43:27;;;;;;;19.38;10.65;;;;;;;27.04;45.87;101567.66;5013855;28;20033;-90
2022/07/20 07:45:56;;;;;;;16.70;9.77;;;;;;;27.08;46.35;101570.53;5014346;28;20121;-90
2022/07/20 07:48:22;;;;;;;21.30;10.43;;;;;;;27.40;46.03;101581.53;5013241;28;20384;-89
2022/07/20 07:50:48;;;;;;;20.30;10.40;;;;;;;27.59;45.72;101583.56;5012557;28;20134;-90
2022/07/20 07:53:13;;;;;;;20.13;10.90;;;;;;;27.61;45.33;101591.50;5012332;28;20108;-89
2022/07/20 07:55:41;;;;;;;16.00;10.23;;;;;;;27.65;45.71;101590.41;5014055;28;20018;-90
2022/07/20 07:58:08;;;;;;;14.50;9.48;;;;;;;27.68;45.44;101586.13;5013843;28;20026;-90
2022/07/20 08:01:12;;;;;;;17.52;10.45;;;;;;;27.68;45.45;101580.63;4994501;28;20022;-90
2022/07/20 08:04:01;;;;;;;16.83;10.77;;;;;;;27.69;45.54;101570.44;5008124;28;20378;-90
2022/07/20 08:06:28;;;;;;;17.10;10.23;;;;;;;27.47;45.71;101567.19;5010294;28;20400;-90
2022/07/20 08:09:19;;;;;;;16.33;9.83;;;;;;;27.57;45.23;101563.09;5011040;28;20112;-90
2022/07/20 08:11:45;;;;;;;17.33;10.37;;;;;;;27.51;45.10;101543.31;5121879;23;20883;-89
2022/07/20 08:14:10;;;;;;;14.38;8.60;;;;;;;27.61;45.48;101548.25;5013611;28;20088;-89
2022/07/20 08:16:35;;;;;;;19.47;10.00;;;;;;;27.84;44.74;101555.06;5013511;28;20034;-90
2022/07/20 08:19:02;;;;;;;17.40;9.20;;;;;;;28.09;45.03;101544.56;5012279;28;20259;-90
2022/07/20 08:21:27;;;;;;;14.65;9.43;;;;;;;28.25;44.32;101550.03;5012609;28;20141;-90
2022/07/20 08:23:53;;;;;;;17.25;9.90;;;;;;;28.34;43.78;101539.59;4995020;28;20553;-89
2022/07/20 08:26:18;;;;;;;18.20;10.17;;;;;;;28.35;43.54;101534.88;5013364;28;20453;-90
2022/07/20 08:28:43;;;;;;;20.20;10.00;;;;;;;28.53;43.57;101558.06;5012804;28;20056;-90
2022/07/20 08:31:09;;;;;;;19.10;9.27;;;;;;;28.60;43.18;101551.88;5011609;28;20469;-89
2022/07/20 08:33:34;;;;;;;14.98;8.93;;;;;;;28.65;41.93;101568.13;5011787;28;20466;-90
2022/07/20 08:36:01;;;;;;;16.77;8.97;;;;;;;28.65;41.38;101570.91;5013494;28;20029;-90
2022/07/20 08:38:26;;;;;;;14.38;8.82;;;;;;;28.81;42.42;101568.09;4994508;28;20040;-90
2022/07/20 08:40:52;;;;;;;12.43;8.50;;;;;;;28.81;41.09;101570.03;5012472;28;20034;-90
2022/07/20 08:43:17;;;;;;;23.13;9.88;;;;;;;28.73;41.54;101582.84;5012430;28;20085;-90
2022/07/20 08:45:44;;;;;;;18.13;9.13;;;;;;;28.70;42.69;101583.56;4995360;28;20033;-90
2022/07/20 08:48:11;;;;;;;15.18;9.80;;;;;;;28.73;42.47;101590.34;5013033;28;20026;-89
2022/07/20 08:50:53;;;;;;;18.15;9.68;;;;;;;28.84;41.73;101572.06;5010374;28;20080;-89
2022/07/20 08:53:21;;;;;;;16.42;9.07;;;;;;;29.29;41.08;101575.19;5011952;28;20053;-90
2022/07/20 08:55:53;;;;;;;14.75;9.52;;;;;;;29.68;40.49;101572.28;5010132;28;20029;-90
2022/07/20 08:58:20;;;;;;;16.17;9.43;;;;;;;30.00;39.60;101558.13;5012190;28;20026;-90
2022/07/20 09:00:45;;;;;;;12.82;9.68;;;;;;;30.42;38.59;101522.31;5012499;28;20029;-91
2022/07/20 09:03:12;;;;;;;14.30;8.70;;;;;;;30.45;38.57;101530.63;5012216;28;20033;-90
2022/07/20 09:05:39;;;;;;;12.93;8.63;;;;;;;30.46;38.12;101536.97;5017036;28;20065;-90
2022/07/20 09:08:09;;;;;;;18.30;9.35;;;;;;;30.33;37.82;101539.19;5012460;28;20065;-90
2022/07/20 09:10:37;;;;;;;16.33;8.93;;;;;;;29.98;37.99;101570.75;5004884;28;20753;-89
2022/07/20 09:13:14;;;;;;;16.10;9.52;;;;;;;30.17;38.50;101587.19;4992279;28;20023;-89
2022/07/20 09:15:40;;;;;;;16.20;9.17;;;;;;;30.13;39.17;101604.88;4990155;28;20053;-90
2022/07/20 09:18:14;;;;;;;16.10;9.40;;;;;;;30.50;38.69;101617.94;4990540;28;20348;-93
2022/07/20 09:23:24;;;;;;;13.10;8.75;;;;;;;30.75;37.32;101611.94;5010038;28;20046;-89
2022/07/20 09:25:53;;;;;;;13.82;8.85;;;;;;;31.00;37.29;101650.94;5010820;28;20042;-90
2022/07/20 09:28:19;;;;;;;13.60;9.10;;;;;;;31.46;36.63;101655.34;5011469;28;20030;-91
2022/07/20 09:30:56;;;;;;;16.27;9.13;;;;;;;31.67;36.01;101637.31;5007693;28;20497;-92
2022/07/20 09:33:31;;;;;;;15.52;9.10;;;;;;;31.69;36.36;101644.03;5028823;28;20069;-93
2022/07/20 09:39:31;;;;;;;17.27;9.02;;;;;;;31.67;36.72;101645.63;4941329;29;20046;-92
2022/07/20 09:42:18;;;;;;;17.07;8.70;;;;;;;31.49;36.95;101626.09;5663521;23;20057;-95
2022/07/20 09:44:50;;;;;;;17.17;9.73;;;;;;;31.49;36.87;101615.81;5038337;28;20306;-93
2022/07/20 09:47:40;;;;;;;14.95;8.48;;;;;;;31.90;36.17;101633.53;5028585;28;20095;-87
2022/07/20 09:50:40;;;;;;;13.82;9.68;;;;;;;32.04;36.29;101632.81;5039871;28;20041;-92
2022/07/20 09:53:21;;;;;;;16.58;9.25;;;;;;;32.24;35.74;101605.59;5012427;28;20029;-89
2022/07/20 09:55:54;;;;;;;17.40;9.63;;;;;;;32.05;35.89;101612.22;4995479;28;20042;-89
2022/07/20 09:58:51;;;;;;;14.45;9.13;;;;;;;32.01;35.34;101606.66;4992200;28;20129;-89
2022/07/20 10:01:31;;;;;;;12.32;8.63;;;;;;;31.95;35.75;101602.69;4994690;28;20029;-89
2022/07/20 10:04:32;;;;;;;14.82;8.95;;;;;;;31.94;35.79;101607.44;5009928;28;20096;-86
2022/07/20 10:07:07;;;;;;;14.70;8.23;;;;;;;31.72;35.76;101612.84;4912716;29;20040;-88
2022/07/20 10:09:35;;;;;;;19.30;8.97;;;;;;;31.51;36.10;101629.25;5011602;28;20296;-91
2022/07/20 10:16:16;;;;;;;14.15;9.15;;;;;;;31.84;35.95;101653.28;5020416;28;20447;-91
2022/07/20 10:19:07;;;;;;;12.77;7.80;;;;;;;31.99;35.12;101640.31;5000159;28;20037;-91
2022/07/20 10:22:10;;;;;;;12.00;7.20;;;;;;;32.26;34.87;101648.41;5351957;23;20049;-91
2022/07/20 10:25:20;;;;;;;11.50;7.45;;;;;;;32.06;34.68;101631.25;5030558;28;20182;-93
2022/07/20 10:28:40;;;;;;;11.23;7.40;;;;;;;31.83;35.42;101629.53;4926113;29;20126;-92
2022/07/20 10:33:45;;;;;;;9.43;7.38;;;;;;;31.12;35.99;101636.03;5050469;23;20042;-95
2022/07/20 10:40:12;;;;;;;26.77;8.10;;;;;;;32.10;35.48;101634.84;5103843;22;20298;-92
2022/07/20 10:45:36;;;;;;;14.82;8.43;;;;;;;32.40;34.43;101630.25;4995957;28;20052;-90
2022/07/20 10:51:35;;;;;;;15.17;7.97;;;;;;;33.45;33.96;101614.59;5008831;28;20048;-90
2022/07/20 10:58:10;;;;;;;11.68;7.88;;;;;;;33.55;32.86;101614.97;4994377;28;20118;-92
2022/07/20 11:00:51;;;;;;;130.50;12.90;;;;;;;33.51;33.62;101617.75;5032456;23;20273;-88
2022/07/20 11:03:56;;;;;;;29.08;8.23;;;;;;;33.40;33.07;101639.22;5008162;28;20080;-90
2022/07/20 11:06:24;;;;;;;24.02;7.80;;;;;;;33.59;33.00;101627.69;5003410;28;20037;-87
2022/07/20 11:09:00;;;;;;;47.00;8.23;;;;;;;33.56;33.36;101628.47;4991717;28;20235;-87
2022/07/20 11:15:01;;;;;;;17.90;7.25;;;;;;;33.11;33.62;101623.31;4990502;28;20056;-86
2022/07/20 11:17:39;;;;;;;14.18;7.93;;;;;;;33.13;33.65;101618.16;5001733;28;20034;-88
2022/07/20 11:22:42;;;;;;;106.07;12.50;;;;;;;33.41;32.66;101611.03;5144684;23;20297;-86
2022/07/20 11:25:07;;;;;;;22.23;7.85;;;;;;;33.42;33.23;101612.63;5009280;28;20165;-87
2022/07/20 11:27:33;;;;;;;14.57;7.60;;;;;;;33.23;32.81;101622.13;5011584;28;20468;-87
2022/07/20 11:33:24;;;;;;;41.05;7.97;;;;;;;33.44;32.24;101601.09;4966108;28;20241;-88
2022/07/20 11:39:29;;;;;;;46.78;9.70;;;;;;;33.94;32.21;101589.94;4999659;28;20538;-87
2022/07/20 11:46:14;;;;;;;32.93;7.53;;;;;;;34.01;32.65;101607.75;4993153;28;20053;-88
2022/07/20 11:48:40;;;;;;;16.97;6.50;;;;;;;33.78;31.89;101614.56;4956966;28;20739;-89
2022/07/20 11:54:25;;;;;;;48.20;8.30;;;;;;;33.58;31.27;101592.78;4949451;28;20042;-85
2022/07/20 11:57:06;;;;;;;69.82;7.97;;;;;;;33.71;31.91;101607.00;4946785;28;20036;-88
2022/07/20 11:59:32;;;;;;;18.73;5.85;;;;;;;34.02;31.55;101592.66;4933729;29;20047;-87
2022/07/20 12:02:04;;;;;;;87.00;7.82;;;;;;;34.21;31.48;101605.31;4945486;28;20027;-88
2022/07/20 12:05:00;;;;;;;12.85;5.90;;;;;;;34.42;31.08;101612.78;4959879;28;20078;-88
2022/07/20 12:10:47;;;;;;;14.90;5.72;;;;;;;34.54;31.54;101608.75;5138124;23;20045;-90
2022/07/20 12:13:16;;;;;;;14.40;5.40;;;;;;;34.55;30.87;101608.31;5010806;28;20038;-93
2022/07/20 12:16:08;;;;;;;11.90;5.13;;;;;;;34.54;30.94;101623.44;5020652;28;20132;-88
2022/07/20 12:18:52;;;;;;;5.90;5.28;;;;;;;34.41;30.99;101611.16;5009897;28;20017;-89
2022/07/20 12:21:24;;;;;;;8.75;5.47;;;;;;;34.10;31.25;101616.47;5010790;28;20362;-89
2022/07/20 12:23:50;;;;;;;6.63;5.00;;;;;;;34.35;30.34;101621.13;5005661;28;20088;-89
2022/07/20 12:26:23;;;;;;;8.77;5.30;;;;;;;34.63;30.87;101623.00;5013560;28;20273;-87
2022/07/20 12:28:49;;;;;;;7.65;4.97;;;;;;;34.76;30.14;101606.63;4993055;28;20041;-87
2022/07/20 12:31:18;;;;;;;10.25;4.75;;;;;;;34.80;29.90;101610.16;5008696;28;20061;-88
2022/07/20 12:34:03;;;;;;;8.80;4.90;;;;;;;34.87;29.02;101617.69;5006002;28;20022;-85
2022/07/20 12:36:46;;;;;;;5.63;4.43;;;;;;;34.77;29.75;101622.13;5008133;28;20029;-86
2022/07/20 12:39:32;;;;;;;6.13;4.47;;;;;;;34.88;29.31;101624.81;4999015;28;20030;-85
2022/07/20 12:42:23;;;;;;;4.93;4.43;;;;;;;35.10;29.42;101625.47;5002817;28;20471;-86
2022/07/20 12:44:57;;;;;;;7.90;4.43;;;;;;;35.36;28.39;101628.88;5016197;28;20331;-84
2022/07/20 12:47:22;;;;;;;6.03;4.05;;;;;;;35.29;28.42;101620.56;5014390;28;20045;-88
2022/07/20 12:49:48;;;;;;;4.63;4.23;;;;;;;35.32;28.62;101628.09;5015012;28;20034;-88
2022/07/20 12:52:14;;;;;;;5.23;4.50;;;;;;;34.81;28.48;101622.88;5009218;28;20307;-87
2022/07/20 12:54:39;;;;;;;6.50;4.03;;;;;;;34.90;28.11;101628.00;5010951;28;20113;-87
2022/07/20 12:57:05;;;;;;;4.83;4.33;;;;;;;35.03;28.60;101625.56;5012370;28;20026;-87
2022/07/20 12:59:30;;;;;;;6.43;4.63;;;;;;;35.44;28.60;101624.81;5010788;28;20030;-88
2022/07/20 13:01:56;;;;;;;10.20;4.78;;;;;;;35.24;29.33;101626.59;5011328;28;20022;-88
2022/07/20 13:04:23;;;;;;;9.87;5.37;;;;;;;34.73;30.45;101622.16;5009035;28;20988;-88
2022/07/20 13:06:50;;;;;;;8.02;5.40;;;;;;;34.16;32.39;101622.41;5009307;28;20026;-87
2022/07/20 13:09:17;;;;;;;9.77;5.75;;;;;;;33.86;33.08;101621.66;4993976;28;20024;-86
2022/07/20 13:11:43;;;;;;;10.63;5.88;;;;;;;33.86;33.26;101630.00;5008961;28;20117;-86
2022/07/20 13:14:15;;;;;;;14.27;5.60;;;;;;;33.28;33.37;101632.81;5009694;28;20036;-86
2022/07/20 13:16:41;;;;;;;7.23;5.23;;;;;;;33.15;34.21;101634.41;5011655;28;20273;-87
2022/07/20 13:19:07;;;;;;;11.50;5.22;;;;;;;33.33;33.83;101626.06;5011207;28;20069;-87
2022/07/20 13:21:32;;;;;;;8.30;4.85;;;;;;;33.65;33.21;101630.84;5008538;28;20113;-88
2022/07/20 13:23:58;;;;;;;9.90;5.13;;;;;;;33.82;33.35;101623.66;5011077;28;20037;-88